Time;durP1;ratioP1;P1;durP2;ratioP2;P2;SDS_P1;SDS_P2;PMS_P1;PMS_P2;Temp;Humidity;BMP_temperature;BMP_pressure;BME280_temperature;BME280_humidity;BME280_pressure;Samples;Min_cycle;Max_cycle;Signal;HPM_P1;HPM_P2
2021/12/26 00:02:07;;;;;;;5.87;2.97;;;;;;;-2.38;61.79;100789.13;5047732;28;20064;-85
2021/12/26 00:04:34;;;;;;;5.17;2.93;;;;;;;-2.35;61.29;100786.66;5048131;28;20079;-86
2021/12/26 00:07:00;;;;;;;5.87;3.10;;;;;;;-2.40;61.56;100789.91;5048378;28;20094;-85
2021/12/26 00:09:25;;;;;;;6.90;3.03;;;;;;;-2.37;61.97;100788.28;5048318;28;20032;-86
2021/12/26 00:11:51;;;;;;;6.23;3.10;;;;;;;-2.34;61.62;100785.84;5048189;28;20033;-85
2021/12/26 00:14:16;;;;;;;6.37;2.90;;;;;;;-2.36;61.77;100777.28;5048412;28;20025;-85
2021/12/26 00:16:42;;;;;;;4.93;2.77;;;;;;;-2.36;62.03;100781.53;5047711;28;20028;-85
2021/12/26 00:19:08;;;;;;;7.07;3.30;;;;;;;-2.33;62.33;100777.38;5047173;28;20048;-85
2021/12/26 00:21:33;;;;;;;7.83;3.20;;;;;;;-2.36;61.02;100777.28;5048661;28;20033;-85
2021/12/26 00:23:59;;;;;;;4.83;3.00;;;;;;;-2.35;61.48;100773.91;5047962;28;20480;-85
2021/12/26 00:26:24;;;;;;;7.70;3.30;;;;;;;-2.34;61.46;100780.72;5049371;28;20116;-85
2021/12/26 00:28:50;;;;;;;6.07;3.27;;;;;;;-2.35;61.77;100773.91;5046880;28;20091;-86
2021/12/26 00:31:16;;;;;;;5.20;3.13;;;;;;;-2.36;62.05;100774.72;5048831;28;20553;-86
2021/12/26 00:33:42;;;;;;;5.67;2.73;;;;;;;-2.35;61.81;100773.91;5049242;28;20086;-86
2021/12/26 00:36:07;;;;;;;7.30;3.10;;;;;;;-2.38;61.51;100767.88;5048761;28;20033;-86
2021/12/26 00:38:33;;;;;;;5.23;2.80;;;;;;;-2.36;61.85;100767.09;5050640;28;20085;-85
2021/12/26 00:40:59;;;;;;;4.87;3.10;;;;;;;-2.36;61.50;100767.09;5048912;28;20121;-86
2021/12/26 00:43:24;;;;;;;5.67;2.63;;;;;;;-2.42;61.75;100756.75;5047790;28;20166;-86
2021/12/26 00:45:50;;;;;;;4.93;2.77;;;;;;;-2.43;62.37;100755.03;5048826;28;20481;-85
2021/12/26 00:48:15;;;;;;;7.00;3.40;;;;;;;-2.44;62.25;100754.16;5029913;28;20037;-85
2021/12/26 00:50:42;;;;;;;5.33;3.00;;;;;;;-2.46;62.10;100754.94;5052163;28;20028;-85
2021/12/26 00:53:07;;;;;;;5.87;2.90;;;;;;;-2.48;62.71;100751.50;5054096;28;20029;-85
2021/12/26 00:55:33;;;;;;;5.27;3.10;;;;;;;-2.49;61.89;100749.75;5052132;28;20029;-85
2021/12/26 00:57:59;;;;;;;6.87;3.20;;;;;;;-2.52;62.12;100749.69;5056913;28;20036;-85
2021/12/26 01:00:28;;;;;;;5.27;3.00;;;;;;;-2.53;61.77;100750.50;5054815;28;20020;-85
2021/12/26 01:02:55;;;;;;;6.87;3.00;;;;;;;-2.56;62.15;100753.00;5052967;28;20480;-86
2021/12/26 01:05:23;;;;;;;6.40;3.10;;;;;;;-2.56;62.05;100753.00;5054126;28;20046;-85
2021/12/26 01:08:03;;;;;;;6.53;3.20;;;;;;;-2.60;62.10;100763.09;5055501;28;20416;-85
2021/12/26 01:10:44;;;;;;;6.10;3.20;;;;;;;-2.61;62.98;100756.28;5035572;28;20021;-86
2021/12/26 01:13:20;;;;;;;6.23;3.07;;;;;;;-2.61;61.89;100766.47;5056350;28;20387;-85
2021/12/26 01:15:48;;;;;;;6.53;3.23;;;;;;;-2.59;62.77;100774.13;5053245;28;20056;-85
2021/12/26 01:18:13;;;;;;;6.17;3.20;;;;;;;-2.57;62.44;100764.84;5053799;28;20023;-86
2021/12/26 01:20:52;;;;;;;6.23;3.47;;;;;;;-2.56;62.87;100768.28;5054239;28;20107;-86
2021/12/26 01:23:20;;;;;;;5.83;3.23;;;;;;;-2.56;62.41;100769.13;5052505;28;20528;-87
2021/12/26 01:25:46;;;;;;;6.90;2.93;;;;;;;-2.57;62.69;100767.41;5055222;28;20029;-86
2021/12/26 01:28:12;;;;;;;6.57;3.50;;;;;;;-2.54;62.54;100779.34;5055713;28;20028;-86
2021/12/26 01:30:39;;;;;;;5.80;3.10;;;;;;;-2.48;62.87;100779.50;5054358;28;20361;-86
2021/12/26 01:33:10;;;;;;;5.20;2.93;;;;;;;-2.48;62.53;100776.97;5066726;28;20039;-86
2021/12/26 01:35:36;;;;;;;5.87;3.30;;;;;;;-2.50;62.67;100776.94;5053745;28;20541;-86
2021/12/26 01:38:02;;;;;;;6.57;3.30;;;;;;;-2.49;61.80;100765.06;5054220;28;20103;-86
2021/12/26 01:40:27;;;;;;;4.87;3.27;;;;;;;-2.52;62.17;100765.84;5053835;28;20531;-86
2021/12/26 01:42:53;;;;;;;6.20;3.30;;;;;;;-2.47;62.99;100760.88;5054292;28;20456;-86
2021/12/26 01:45:18;;;;;;;4.97;3.27;;;;;;;-2.48;62.19;100756.59;5054264;28;20025;-87
2021/12/26 01:47:47;;;;;;;5.73;3.47;;;;;;;-2.48;62.95;100767.66;5052732;28;20040;-86
2021/12/26 01:50:13;;;;;;;7.43;3.40;;;;;;;-2.46;62.56;100765.13;5053019;28;20678;-86
2021/12/26 01:52:38;;;;;;;5.43;3.07;;;;;;;-2.45;62.41;100761.78;5051934;28;20013;-86
2021/12/26 01:57:54;;;;;;;6.03;3.60;;;;;;;-2.42;62.68;100755.88;5051681;28;20067;-86
2021/12/26 02:00:20;;;;;;;5.68;2.90;;;;;;;-2.44;62.56;100749.06;5052566;28;20046;-86
2021/12/26 02:02:45;;;;;;;5.73;3.23;;;;;;;-2.45;62.73;100752.44;5052921;28;20021;-86
2021/12/26 02:05:11;;;;;;;5.30;3.30;;;;;;;-2.45;63.11;100751.56;5052158;28;20444;-86
2021/12/26 02:07:36;;;;;;;5.40;3.17;;;;;;;-2.44;62.89;100743.97;5053772;28;20017;-86
2021/12/26 02:10:02;;;;;;;6.23;3.30;;;;;;;-2.42;62.71;100740.59;5052463;28;20491;-86
2021/12/26 02:12:27;;;;;;;7.43;3.27;;;;;;;-2.41;62.48;100742.31;5050569;28;20021;-86
2021/12/26 02:14:53;;;;;;;5.53;3.20;;;;;;;-2.38;62.39;100752.59;5051050;28;20468;-86
2021/12/26 02:17:19;;;;;;;5.67;2.90;;;;;;;-2.39;62.26;100746.63;5051963;28;20021;-86
2021/12/26 02:19:44;;;;;;;6.53;3.37;;;;;;;-2.39;61.88;100741.53;5052477;28;20399;-86
2021/12/26 02:22:14;;;;;;;6.10;3.33;;;;;;;-2.42;61.90;100744.03;5052468;28;20048;-86
2021/12/26 02:27:31;;;;;;;5.53;3.10;;;;;;;-2.45;63.03;100733.75;5052925;28;20406;-86
2021/12/26 02:30:09;;;;;;;5.73;3.20;;;;;;;-2.47;61.77;100728.59;5055900;28;20484;-86
2021/12/26 02:32:35;;;;;;;5.90;3.40;;;;;;;-2.46;62.00;100729.47;5053688;28;20529;-86
2021/12/26 02:35:01;;;;;;;5.73;3.07;;;;;;;-2.47;62.63;100725.19;5034145;28;20017;-86
2021/12/26 02:37:27;;;;;;;6.33;3.10;;;;;;;-2.53;62.20;100733.56;5052566;28;20071;-86
2021/12/26 02:39:53;;;;;;;6.73;3.10;;;;;;;-2.51;61.86;100736.13;5051154;28;20403;-86
2021/12/26 02:42:20;;;;;;;5.70;3.50;;;;;;;-2.55;62.16;100735.19;5052379;28;20025;-86
2021/12/26 02:44:47;;;;;;;5.63;3.47;;;;;;;-2.55;61.74;100729.22;5052456;28;20049;-86
2021/12/26 02:47:12;;;;;;;4.90;2.90;;;;;;;-2.54;62.17;100728.41;5050500;28;20025;-87
2021/12/26 02:49:38;;;;;;;4.80;3.10;;;;;;;-2.52;62.57;100731.84;5052710;28;20086;-86
2021/12/26 02:52:03;;;;;;;5.67;3.43;;;;;;;-2.51;62.99;100721.72;5052011;28;20430;-86
2021/12/26 02:54:29;;;;;;;7.17;3.50;;;;;;;-2.50;62.45;100728.53;5051905;28;20021;-87
2021/12/26 02:56:54;;;;;;;6.67;3.50;;;;;;;-2.52;62.20;100724.22;5053341;28;20068;-86
2021/12/26 02:59:20;;;;;;;5.17;3.13;;;;;;;-2.52;62.39;100719.13;5051610;28;20032;-86
2021/12/26 03:01:45;;;;;;;6.57;3.70;;;;;;;-2.52;62.37;100729.31;5053879;28;20395;-86
2021/12/26 03:04:11;;;;;;;5.43;3.70;;;;;;;-2.50;62.64;100727.66;5057355;28;20395;-87
2021/12/26 03:07:01;;;;;;;6.57;3.50;;;;;;;-2.50;62.48;100730.22;5051810;28;20066;-87
2021/12/26 03:09:29;;;;;;;8.07;3.47;;;;;;;-2.48;62.17;100734.53;5051385;28;20020;-86
2021/12/26 03:11:55;;;;;;;4.93;2.80;;;;;;;-2.49;61.77;100724.28;5034763;28;20025;-87
2021/12/26 03:14:20;;;;;;;5.97;3.30;;;;;;;-2.53;62.14;100727.56;5051244;28;20013;-86
2021/12/26 03:16:50;;;;;;;6.00;3.20;;;;;;;-2.53;62.52;100722.47;5051991;28;20031;-86
2021/12/26 03:19:16;;;;;;;5.03;3.20;;;;;;;-2.54;62.74;100721.63;5051547;28;20025;-86
2021/12/26 03:21:42;;;;;;;5.50;3.03;;;;;;;-2.54;62.17;100721.63;5051040;28;20090;-86
2021/12/26 03:24:07;;;;;;;6.77;3.37;;;;;;;-2.53;62.46;100722.47;5051587;28;20013;-86
2021/12/26 03:26:32;;;;;;;7.03;3.50;;;;;;;-2.49;62.75;100727.72;5051803;28;20124;-86
2021/12/26 03:28:58;;;;;;;6.03;3.57;;;;;;;-2.46;62.66;100724.38;5051392;28;20090;-87
2021/12/26 03:31:23;;;;;;;6.33;3.47;;;;;;;-2.41;62.81;100721.94;5051274;28;20480;-87
2021/12/26 03:33:48;;;;;;;5.03;3.50;;;;;;;-2.39;62.46;100712.66;5054743;28;20078;-87
2021/12/26 03:36:13;;;;;;;5.60;3.47;;;;;;;-2.40;62.91;100713.47;5055352;28;20075;-86
2021/12/26 03:38:39;;;;;;;5.70;2.97;;;;;;;-2.44;62.47;100712.53;5055533;28;20460;-86
2021/12/26 03:41:05;;;;;;;5.70;3.10;;;;;;;-2.47;62.65;100713.31;5054734;28;20025;-86
2021/12/26 03:43:30;;;;;;;5.87;3.60;;;;;;;-2.50;62.61;100699.63;5055173;28;20017;-86
2021/12/26 03:45:56;;;;;;;5.53;3.40;;;;;;;-2.51;62.68;100700.47;5055084;28;20033;-87
2021/12/26 03:48:23;;;;;;;5.73;3.23;;;;;;;-2.54;62.45;100705.47;5055311;28;20116;-87
2021/12/26 03:50:49;;;;;;;4.80;3.10;;;;;;;-2.55;62.28;100699.53;5036641;28;20112;-86
2021/12/26 03:53:15;;;;;;;6.10;3.40;;;;;;;-2.57;62.50;100695.22;5055097;28;20103;-86
2021/12/26 03:55:42;;;;;;;7.27;3.30;;;;;;;-2.57;61.84;100702.88;5054905;28;20061;-86
2021/12/26 03:58:08;;;;;;;8.43;3.80;;;;;;;-2.57;63.75;100707.97;5056887;28;20017;-87
2021/12/26 04:00:34;;;;;;;6.07;3.33;;;;;;;-2.56;63.21;100704.59;5054036;28;20065;-87
2021/12/26 04:03:00;;;;;;;7.07;3.60;;;;;;;-2.58;62.34;100703.69;5057805;28;20025;-87
2021/12/26 04:05:26;;;;;;;5.77;3.40;;;;;;;-2.61;62.39;100702.78;5054720;28;20032;-86
2021/12/26 04:07:51;;;;;;;5.67;3.50;;;;;;;-2.61;62.75;100707.88;5055495;28;20493;-87
2021/12/26 04:10:18;;;;;;;5.43;3.30;;;;;;;-2.65;62.75;100698.44;5054494;28;20029;-87
2021/12/26 04:12:47;;;;;;;7.27;3.93;;;;;;;-2.66;63.20;100701.78;5054422;28;20491;-87
2021/12/26 04:15:15;;;;;;;7.60;3.50;;;;;;;-2.61;63.87;100691.72;5054847;28;20013;-87
2021/12/26 04:17:41;;;;;;;5.80;3.60;;;;;;;-2.65;63.14;100693.34;5057609;28;20025;-86
2021/12/26 04:20:08;;;;;;;5.17;3.37;;;;;;;-2.70;63.74;100689.81;5053796;28;20039;-86
2021/12/26 04:22:33;;;;;;;5.53;3.33;;;;;;;-2.74;63.63;100698.22;5052767;28;20105;-86
2021/12/26 04:25:00;;;;;;;6.00;3.60;;;;;;;-2.78;63.21;100686.22;5053156;28;20099;-87
2021/12/26 04:27:25;;;;;;;6.03;3.50;;;;;;;-2.84;63.76;100691.13;5052669;28;20387;-87
2021/12/26 04:29:52;;;;;;;5.37;3.40;;;;;;;-2.85;64.03;100689.41;5053006;28;20235;-86
2021/12/26 04:32:18;;;;;;;5.83;3.50;;;;;;;-2.86;64.48;100682.59;5053495;28;20759;-87
2021/12/26 04:34:43;;;;;;;5.60;3.40;;;;;;;-2.91;64.07;100683.34;5054452;28;20033;-86
2021/12/26 04:37:09;;;;;;;6.30;3.53;;;;;;;-2.94;64.37;100680.72;5054164;28;20118;-87
2021/12/26 04:39:34;;;;;;;6.70;3.50;;;;;;;-2.97;64.10;100689.94;5053329;28;20036;-86
2021/12/26 04:41:59;;;;;;;7.20;3.90;;;;;;;-2.99;64.50;100686.50;5053662;28;20016;-87
2021/12/26 04:44:26;;;;;;;6.57;3.63;;;;;;;-3.01;64.84;100686.44;5053792;28;20032;-87
2021/12/26 04:46:51;;;;;;;6.30;3.60;;;;;;;-3.04;65.27;100686.34;5053578;28;20021;-87
2021/12/26 04:49:17;;;;;;;6.90;3.77;;;;;;;-3.03;64.56;100675.34;5054436;28;20499;-87
2021/12/26 04:51:42;;;;;;;6.33;3.50;;;;;;;-3.03;64.31;100679.59;5054025;28;20032;-87
2021/12/26 04:54:08;;;;;;;5.97;3.50;;;;;;;-3.08;65.52;100671.84;5053475;28;20017;-87
2021/12/26 04:56:33;;;;;;;7.13;3.90;;;;;;;-3.10;64.55;100678.56;5054354;28;20108;-87
2021/12/26 04:58:59;;;;;;;7.20;3.53;;;;;;;-3.10;65.38;100681.13;5053680;28;20028;-87
2021/12/26 05:01:25;;;;;;;6.30;3.70;;;;;;;-3.10;65.33;100678.56;5053973;28;20020;-86
2021/12/26 05:03:50;;;;;;;6.40;3.70;;;;;;;-3.11;65.50;100671.75;5053103;28;20021;-86
2021/12/26 05:06:15;;;;;;;7.80;3.60;;;;;;;-3.11;65.26;100671.75;5054546;28;20024;-86
2021/12/26 05:08:41;;;;;;;6.13;3.60;;;;;;;-3.15;65.62;100665.69;5054714;28;20044;-86
2021/12/26 05:11:06;;;;;;;6.37;3.80;;;;;;;-3.17;66.18;100669.91;5055446;28;20490;-87
2021/12/26 05:13:32;;;;;;;8.47;3.60;;;;;;;-3.16;65.04;100666.53;5053551;28;20044;-87
2021/12/26 05:15:57;;;;;;;7.27;3.70;;;;;;;-3.18;65.40;100664.75;5053752;28;20028;-87
2021/12/26 05:18:23;;;;;;;7.57;3.57;;;;;;;-3.18;65.52;100662.22;5054777;28;20025;-86
2021/12/26 05:20:48;;;;;;;7.23;3.67;;;;;;;-3.21;65.83;100666.41;5054169;28;20021;-86
2021/12/26 05:23:13;;;;;;;6.67;3.53;;;;;;;-3.22;65.73;100663.81;5055235;28;20072;-87
2021/12/26 05:25:39;;;;;;;6.43;4.00;;;;;;;-3.25;65.54;100662.06;5053635;28;20140;-87
2021/12/26 05:28:04;;;;;;;5.90;3.67;;;;;;;-3.26;65.92;100655.25;5053908;28;20047;-87
2021/12/26 05:30:29;;;;;;;6.07;3.93;;;;;;;-3.26;65.85;100662.00;5052634;28;20067;-87
2021/12/26 05:32:55;;;;;;;7.57;3.77;;;;;;;-3.28;65.35;100653.47;5052438;28;20074;-86
2021/12/26 05:35:21;;;;;;;8.53;3.63;;;;;;;-3.31;65.63;100661.88;5053674;28;20024;-87
2021/12/26 05:37:47;;;;;;;6.00;3.40;;;;;;;-3.34;65.00;100664.34;5053007;28;20035;-87
2021/12/26 05:40:13;;;;;;;7.63;4.07;;;;;;;-3.36;65.30;100660.88;5053037;28;20380;-87
2021/12/26 05:42:39;;;;;;;7.43;3.80;;;;;;;-3.36;65.48;100660.88;5053461;28;20021;-87
2021/12/26 05:45:07;;;;;;;7.40;3.53;;;;;;;-3.38;65.87;100652.34;5052178;28;20365;-86
2021/12/26 05:47:32;;;;;;;11.13;4.07;;;;;;;-3.43;65.41;100649.69;5052967;28;20020;-86
2021/12/26 05:49:58;;;;;;;5.70;3.60;;;;;;;-3.43;65.33;100653.91;5051736;28;20109;-87
2021/12/26 05:52:24;;;;;;;6.50;3.80;;;;;;;-3.48;65.78;100645.28;5052472;28;20036;-87
2021/12/26 05:54:50;;;;;;;6.07;3.60;;;;;;;-3.48;65.57;100646.13;5052415;28;20025;-87
2021/12/26 05:57:16;;;;;;;7.47;3.83;;;;;;;-3.52;65.86;100640.09;5053130;28;20112;-86
2021/12/26 05:59:43;;;;;;;8.10;3.60;;;;;;;-3.53;66.49;100638.38;5052940;28;20107;-86
2021/12/26 06:02:08;;;;;;;7.00;3.90;;;;;;;-3.53;66.40;100633.28;5052195;28;20074;-86
2021/12/26 06:04:33;;;;;;;6.30;3.90;;;;;;;-3.57;66.08;100630.63;5053584;28;20430;-87
2021/12/26 06:06:59;;;;;;;6.37;3.63;;;;;;;-3.57;67.15;100638.25;5052346;28;20132;-87
2021/12/26 06:09:24;;;;;;;6.73;3.70;;;;;;;-3.58;66.87;100644.16;5053931;28;20025;-87
2021/12/26 06:11:49;;;;;;;10.10;3.87;;;;;;;-3.57;67.11;100645.88;5053655;28;20532;-87
2021/12/26 06:14:15;;;;;;;7.70;4.00;;;;;;;-3.59;66.71;100655.16;5051979;28;20539;-86
2021/12/26 06:16:40;;;;;;;7.67;3.73;;;;;;;-3.61;66.34;100639.84;5052544;28;20021;-86
2021/12/26 06:19:06;;;;;;;7.03;3.93;;;;;;;-3.59;66.68;100644.97;5051368;28;20075;-86
2021/12/26 06:21:31;;;;;;;6.77;3.87;;;;;;;-3.61;66.34;100644.06;5051354;28;20530;-86
2021/12/26 06:23:57;;;;;;;8.47;3.80;;;;;;;-3.63;66.56;100641.50;5050429;28;20048;-87
2021/12/26 06:26:25;;;;;;;5.50;3.40;;;;;;;-3.64;67.20;100639.75;5049997;28;20031;-87
2021/12/26 06:28:51;;;;;;;5.77;3.60;;;;;;;-3.66;66.99;100646.47;5051768;28;20021;-87
2021/12/26 06:31:16;;;;;;;6.33;3.63;;;;;;;-3.69;66.88;100641.31;5054556;28;20021;-87
2021/12/26 06:33:42;;;;;;;7.13;3.97;;;;;;;-3.69;67.58;100638.75;5052598;28;20025;-87
2021/12/26 06:36:08;;;;;;;6.53;3.83;;;;;;;-3.71;67.13;100636.19;5051944;28;20061;-87
2021/12/26 06:38:38;;;;;;;7.37;4.17;;;;;;;-3.71;67.42;100635.31;5052716;28;20036;-86
2021/12/26 06:41:05;;;;;;;6.53;3.90;;;;;;;-3.70;67.46;100639.56;5052445;28;20122;-87
2021/12/26 06:43:31;;;;;;;6.93;3.50;;;;;;;-3.73;68.04;100647.09;5052661;28;20033;-87
2021/12/26 06:45:57;;;;;;;7.63;3.90;;;;;;;-3.74;67.20;100642.84;5053293;28;20079;-87
2021/12/26 06:48:23;;;;;;;7.20;3.40;;;;;;;-3.72;67.37;100644.63;5053119;28;20502;-87
2021/12/26 06:50:49;;;;;;;6.20;4.00;;;;;;;-3.72;67.78;100641.19;5052738;28;20048;-87
2021/12/26 06:53:15;;;;;;;7.50;4.00;;;;;;;-3.75;67.68;100630.94;5051670;28;20104;-87
2021/12/26 06:55:41;;;;;;;7.43;3.97;;;;;;;-3.74;68.06;100638.63;5053129;28;20075;-87
2021/12/26 06:58:06;;;;;;;7.37;3.80;;;;;;;-3.74;68.22;100635.22;5051517;28;20017;-86
2021/12/26 07:00:32;;;;;;;6.63;3.70;;;;;;;-3.77;68.04;100632.59;5052596;28;20025;-87
2021/12/26 07:02:57;;;;;;;6.40;3.70;;;;;;;-3.76;67.72;100636.88;5051496;28;20033;-87
2021/12/26 07:05:23;;;;;;;6.03;3.77;;;;;;;-3.77;67.57;100633.44;5052432;28;20120;-86
2021/12/26 07:07:48;;;;;;;6.97;4.00;;;;;;;-3.77;67.88;100628.38;5055347;28;20091;-87
2021/12/26 07:10:14;;;;;;;6.30;3.57;;;;;;;-3.77;67.77;100630.06;5056152;28;20032;-87
2021/12/26 07:12:40;;;;;;;6.63;3.63;;;;;;;-3.78;67.89;100630.88;5058231;28;20532;-86
2021/12/26 07:15:06;;;;;;;7.67;4.00;;;;;;;-3.78;68.45;100628.34;5058082;28;20040;-87
2021/12/26 07:17:32;;;;;;;7.20;3.93;;;;;;;-3.78;68.00;100635.97;5057026;28;20020;-87
2021/12/26 07:19:57;;;;;;;7.07;4.20;;;;;;;-3.79;67.46;100630.00;5056233;28;20024;-87
2021/12/26 07:22:22;;;;;;;6.70;3.97;;;;;;;-3.77;68.01;100633.44;5056419;28;20045;-87
2021/12/26 07:24:48;;;;;;;7.17;4.00;;;;;;;-3.77;68.22;100635.16;5055895;28;20021;-87
2021/12/26 07:27:14;;;;;;;7.17;3.90;;;;;;;-3.76;68.56;100626.69;5039605;28;20032;-87
2021/12/26 07:29:40;;;;;;;7.83;4.40;;;;;;;-3.75;68.47;100625.84;5056449;28;20033;-87
2021/12/26 07:32:06;;;;;;;8.77;4.17;;;;;;;-3.75;68.53;100633.47;5055333;28;20112;-87
2021/12/26 07:34:33;;;;;;;6.50;3.93;;;;;;;-3.75;68.41;100626.72;5055717;28;20020;-87
2021/12/26 07:36:58;;;;;;;6.13;3.80;;;;;;;-3.74;68.37;100627.59;5038418;28;20045;-87
2021/12/26 07:39:24;;;;;;;9.40;4.00;;;;;;;-3.74;69.30;100627.59;5057191;28;20518;-87
2021/12/26 07:41:49;;;;;;;6.10;3.73;;;;;;;-3.71;68.79;100632.75;5054859;28;20067;-87
2021/12/26 07:44:14;;;;;;;7.30;4.27;;;;;;;-3.69;68.35;100628.59;5057162;28;20349;-86
2021/12/26 07:46:39;;;;;;;8.60;4.33;;;;;;;-3.66;68.71;100633.75;5055265;28;20197;-87
2021/12/26 07:49:05;;;;;;;7.50;4.47;;;;;;;-3.65;68.32;100627.88;5054549;28;20048;-87
2021/12/26 07:51:30;;;;;;;6.43;3.90;;;;;;;-3.64;68.79;100631.25;5055835;28;20056;-86
2021/12/26 07:54:00;;;;;;;7.70;4.13;;;;;;;-3.65;68.56;100625.31;5055325;28;20033;-87
2021/12/26 07:56:25;;;;;;;6.90;4.07;;;;;;;-3.64;68.87;100627.06;5057262;28;20193;-87
2021/12/26 07:58:51;;;;;;;8.67;4.60;;;;;;;-3.61;69.31;100634.78;5054789;28;20112;-87
2021/12/26 08:01:16;;;;;;;9.17;4.20;;;;;;;-3.61;69.04;100629.69;5055901;28;20031;-87
2021/12/26 08:03:41;;;;;;;8.13;4.50;;;;;;;-3.58;68.83;100629.75;5054644;28;20024;-87
2021/12/26 08:06:08;;;;;;;8.57;4.47;;;;;;;-3.56;68.87;100635.75;5034608;28;20025;-86
2021/12/26 08:08:33;;;;;;;6.80;4.27;;;;;;;-3.55;68.95;100637.47;5053253;28;20024;-87
2021/12/26 08:10:58;;;;;;;8.03;4.40;;;;;;;-3.55;68.92;100624.75;5054151;28;20024;-87
2021/12/26 08:13:24;;;;;;;6.87;4.37;;;;;;;-3.49;68.57;100630.84;5055274;28;20078;-87
2021/12/26 08:15:50;;;;;;;7.53;4.50;;;;;;;-3.45;69.47;100638.59;5037673;28;20023;-87
2021/12/26 08:18:15;;;;;;;6.97;4.40;;;;;;;-3.45;69.08;100642.84;5053258;28;20024;-87
2021/12/26 08:20:40;;;;;;;9.47;4.67;;;;;;;-3.39;69.26;100642.97;5054000;28;20090;-86
2021/12/26 08:23:06;;;;;;;7.83;4.33;;;;;;;-3.34;69.34;100643.97;5054798;28;20048;-87
2021/12/26 08:25:31;;;;;;;7.17;4.30;;;;;;;-3.32;69.21;100644.91;5054640;28;20478;-87
2021/12/26 08:27:56;;;;;;;7.50;4.60;;;;;;;-3.25;69.34;100644.25;5053702;28;20033;-87
2021/12/26 08:30:22;;;;;;;8.33;4.40;;;;;;;-3.24;69.11;100647.66;5054988;28;20044;-87
2021/12/26 08:32:53;;;;;;;8.27;5.00;;;;;;;-3.20;69.53;100645.22;5054588;28;20017;-87
2021/12/26 08:35:19;;;;;;;7.68;4.78;;;;;;;-3.13;68.88;100647.94;5054158;28;20356;-87
2021/12/26 08:37:46;;;;;;;8.67;4.83;;;;;;;-3.08;69.42;100648.94;5053938;28;20032;-87
2021/12/26 08:40:13;;;;;;;10.90;5.90;;;;;;;-3.01;68.96;100650.81;5055290;28;20016;-87
2021/12/26 08:42:38;;;;;;;8.33;5.40;;;;;;;-2.96;69.13;100648.38;5055073;28;20104;-87
2021/12/26 08:45:04;;;;;;;9.67;5.97;;;;;;;-2.91;69.38;100655.34;5054029;28;20086;-87
2021/12/26 08:47:30;;;;;;;10.37;5.60;;;;;;;-2.85;69.19;100648.66;5054954;28;20651;-87
2021/12/26 08:49:55;;;;;;;9.83;5.20;;;;;;;-2.80;69.41;100639.47;5054748;28;20028;-87
2021/12/26 08:52:20;;;;;;;9.87;5.93;;;;;;;-2.77;68.78;100637.84;5054919;28;20032;-87
2021/12/26 08:54:46;;;;;;;7.43;4.80;;;;;;;-2.74;69.26;100637.09;5053095;28;20025;-87
2021/12/26 08:57:11;;;;;;;9.20;5.50;;;;;;;-2.68;68.95;100647.41;5054934;28;20502;-86
2021/12/26 08:59:38;;;;;;;11.77;5.30;;;;;;;-2.65;68.20;100650.03;5053839;28;20036;-87
2021/12/26 09:02:07;;;;;;;10.07;5.50;;;;;;;-2.66;69.02;100650.88;5055947;28;20115;-87
2021/12/26 09:04:33;;;;;;;9.57;5.00;;;;;;;-2.57;69.10;100662.13;5056191;28;20059;-86
2021/12/26 09:06:58;;;;;;;10.57;5.60;;;;;;;-2.55;68.75;100660.44;5054485;28;20115;-87
2021/12/26 09:09:25;;;;;;;10.67;5.97;;;;;;;-2.51;68.86;100665.69;5053299;28;20092;-87
2021/12/26 09:11:51;;;;;;;8.00;5.40;;;;;;;-2.45;68.47;100655.63;5054351;28;20044;-87
2021/12/26 09:14:17;;;;;;;10.33;5.17;;;;;;;-2.40;68.37;100655.75;5053002;28;20017;-87
2021/12/26 09:16:42;;;;;;;9.07;5.30;;;;;;;-2.38;68.41;100641.34;5053406;28;20065;-88
2021/12/26 09:19:08;;;;;;;8.87;5.43;;;;;;;-2.37;68.21;100640.53;5054180;28;20033;-87
2021/12/26 09:21:35;;;;;;;10.80;5.67;;;;;;;-2.33;68.68;100644.03;5053377;28;20024;-87
2021/12/26 09:24:00;;;;;;;8.73;5.30;;;;;;;-2.34;68.38;100643.16;5035085;28;20033;-88
2021/12/26 09:26:26;;;;;;;10.73;5.70;;;;;;;-2.29;68.65;100646.69;5054575;28;20040;-87
2021/12/26 09:28:51;;;;;;;8.47;5.57;;;;;;;-2.29;67.87;100643.25;5053847;28;20025;-86
2021/12/26 09:31:16;;;;;;;12.00;5.90;;;;;;;-2.26;68.87;100640.78;5052065;28;20044;-86
2021/12/26 09:33:42;;;;;;;10.20;5.57;;;;;;;-2.20;68.70;100645.16;5052593;28;20032;-86
2021/12/26 09:36:08;;;;;;;9.50;5.73;;;;;;;-2.19;68.43;100654.53;5051747;28;20048;-86
2021/12/26 09:38:33;;;;;;;9.13;5.50;;;;;;;-2.12;67.94;100643.66;5051852;28;20024;-86
2021/12/26 09:40:59;;;;;;;10.63;6.23;;;;;;;-2.07;68.92;100641.22;5051811;28;20036;-87
2021/12/26 09:43:25;;;;;;;11.57;6.00;;;;;;;-2.06;67.98;100628.50;5052967;28;20021;-86
2021/12/26 09:45:50;;;;;;;9.57;5.93;;;;;;;-2.03;67.93;100623.47;5052463;28;20029;-87
2021/12/26 09:48:16;;;;;;;12.00;6.67;;;;;;;-2.04;67.69;100626.84;5053793;28;20421;-87
2021/12/26 09:50:42;;;;;;;10.50;6.03;;;;;;;-2.00;68.67;100643.94;5054232;28;20029;-87
2021/12/26 09:53:08;;;;;;;12.67;6.53;;;;;;;-1.96;68.32;100637.19;5052067;28;20449;-87
2021/12/26 09:55:33;;;;;;;10.47;6.20;;;;;;;-1.91;68.34;100627.13;5053792;28;20058;-86
2021/12/26 09:57:58;;;;;;;9.83;6.20;;;;;;;-1.87;68.28;100634.88;5053704;28;20028;-85
2021/12/26 10:00:34;;;;;;;10.80;6.30;;;;;;;-1.84;68.36;100626.41;5052193;28;20036;-84
2021/12/26 10:03:14;;;;;;;12.50;6.47;;;;;;;-1.81;68.61;100629.03;5051530;28;20097;-84
2021/12/26 10:06:14;;;;;;;11.73;7.33;;;;;;;-1.76;68.82;100622.34;5051980;28;20049;-85
2021/12/26 10:09:02;;;;;;;10.33;6.20;;;;;;;-1.71;68.83;100625.00;5051887;28;20032;-85
2021/12/26 10:11:38;;;;;;;10.90;6.83;;;;;;;-1.68;68.42;100620.81;5054724;28;20049;-85
2021/12/26 10:14:06;;;;;;;12.77;6.97;;;;;;;-1.63;68.61;100612.41;5051717;28;20028;-84
2021/12/26 10:16:37;;;;;;;11.53;6.50;;;;;;;-1.59;68.49;100609.09;5051537;28;20056;-85
2021/12/26 10:19:05;;;;;;;12.07;6.60;;;;;;;-1.55;68.91;100603.22;5052550;28;20029;-85
2021/12/26 10:21:39;;;;;;;10.80;6.47;;;;;;;-1.51;68.60;100596.50;5051456;28;20108;-85
2021/12/26 10:24:16;;;;;;;10.60;6.43;;;;;;;-1.48;68.67;100597.41;5051445;28;20072;-85
2021/12/26 10:27:06;;;;;;;11.73;6.67;;;;;;;-1.42;69.23;100587.31;5053072;28;20036;-84
2021/12/26 10:29:33;;;;;;;11.77;6.93;;;;;;;-1.37;69.51;100583.16;5039436;28;20483;-85
2021/12/26 10:32:04;;;;;;;11.00;6.80;;;;;;;-1.29;69.34;100585.88;5050800;28;20032;-85
2021/12/26 10:34:33;;;;;;;10.33;6.83;;;;;;;-1.26;68.60;100582.50;5053669;28;20045;-84
2021/12/26 10:37:00;;;;;;;10.57;6.53;;;;;;;-1.25;68.94;100576.56;5052169;28;20044;-84
2021/12/26 10:39:32;;;;;;;9.80;6.30;;;;;;;-1.22;69.02;100574.06;5053722;28;20029;-84
2021/12/26 10:42:02;;;;;;;12.33;7.47;;;;;;;-1.20;68.93;100569.00;5049099;28;20494;-83
2021/12/26 10:44:54;;;;;;;10.03;6.90;;;;;;;-1.17;69.17;100562.25;5044237;28;20122;-85
2021/12/26 10:47:25;;;;;;;12.20;6.95;;;;;;;-1.17;68.61;100561.38;5044550;28;20041;-84
2021/12/26 10:50:00;;;;;;;12.50;6.63;;;;;;;-1.17;68.92;100561.38;5044449;28;20033;-85
2021/12/26 10:52:36;;;;;;;11.57;6.87;;;;;;;-1.14;69.23;100561.44;5043718;28;20041;-85
2021/12/26 10:55:12;;;;;;;12.70;7.33;;;;;;;-1.12;69.15;100558.09;5043688;28;20058;-85
2021/12/26 10:57:49;;;;;;;11.33;7.30;;;;;;;-1.10;69.36;100553.88;5044354;28;20029;-86
2021/12/26 11:00:17;;;;;;;10.83;7.17;;;;;;;-1.08;69.62;100553.88;5046573;28;20043;-84
2021/12/26 11:02:51;;;;;;;11.83;7.07;;;;;;;-1.05;69.95;100559.03;5045094;28;20430;-84
2021/12/26 11:05:21;;;;;;;10.63;6.73;;;;;;;-1.03;68.64;100564.19;5044810;28;20584;-86
2021/12/26 11:07:59;;;;;;;10.60;6.57;;;;;;;-1.03;68.82;100559.94;5044066;28;20033;-83
2021/12/26 11:10:30;;;;;;;11.87;7.03;;;;;;;-0.99;69.27;100560.84;5045410;28;20098;-84
2021/12/26 11:12:58;;;;;;;10.67;7.13;;;;;;;-1.00;69.08;100549.78;5045532;28;20024;-85
2021/12/26 11:15:26;;;;;;;11.77;7.30;;;;;;;-0.95;69.39;100557.50;5044439;28;20029;-86
2021/12/26 11:17:56;;;;;;;12.03;6.97;;;;;;;-0.88;70.22;100554.25;5043685;28;20021;-86
2021/12/26 11:20:43;;;;;;;11.87;7.03;;;;;;;-0.81;69.42;100550.94;5043352;28;20439;-85
2021/12/26 11:23:10;;;;;;;12.33;6.73;;;;;;;-0.80;68.89;100545.00;5056398;28;20398;-85
2021/12/26 11:25:43;;;;;;;13.03;6.93;;;;;;;-0.77;69.32;100546.75;5026895;28;20049;-86
2021/12/26 11:28:14;;;;;;;12.90;7.40;;;;;;;-0.78;69.06;100540.78;5025459;28;20037;-86
2021/12/26 11:30:44;;;;;;;11.20;6.97;;;;;;;-0.75;68.47;100534.84;5024948;28;20034;-85